Bo Airport

Jump to: basic info | weather | comments

Related pages: nearby airports | nearby navaids | notams | map

Basic information (top)

Codes: KBS GFBO
Location: lon 7.944400, lat -11.761000, elev 328 ft / 100 m msl
Status: medium_airport
Scheduled airline service: yes
Links: Wikipedia Mobile

Weather (top)

Current conditions for Lungi International Airport 94nm (175km) WNW (rec'd 2015/01/26 22:00Z):

GFLL 262200Z 21010KT 9999 SCT011 27/25 Q1012

Airport forecast for Lungi International Airport 94nm (175km) WNW (rec'd 2015/01/26 18:51Z):

TAF TAF GFLL 261600Z 2618/2724 29010KT 7000 HZ SKC SCT014 
      BECMG 2621/2623 26008KT 8000 -HZ 
      TEMPO 2701/2707 09003KT 4000 BR BKN012 
      BECMG 2708/2710 16004KT 8000 FM 271200 7000 HZ SKC

Latest comments (top)

No comments yet for Bo Airport

More... (top)

See also NOTAMs and nearby airports and navaids, or visit the Bo Airport page at the main OurAirports website..